OE5HCE Weather Reports


time (UTC)temp
C
wind
direction
speed
KPH
gust
KPH
rain 1hr
cm
rain 24hr
cm
rain mn
cm
humidity
%
barometer
mb
20190426144524 13 225 19.3 38.6 0.00 0.00 0.00 65 1011.9
20190426143008 14 281 16.1 29.0 0.00 0.00 0.00 64 1011.3
20190426141727 15 264 19.3 41.8 0.00 0.00 0.00 61 1010.6
20190426140137 16 267 11.3 27.4 0.00 0.00 0.00 59 1010.0
20190426134815 17 279 14.5 33.8 0.00 0.00 0.00 57 1009.3
20190426133230 18 282 16.1 30.6 0.00 0.00 0.00 56 1009.1
20190426131702 18 249 14.5 29.0 0.00 0.00 0.00 56 1009.0
20190426130119 17 261 8.0 30.6 0.00 0.00 0.00 58 1008.9
20190426124656 17 275 14.5 29.0 0.00 0.00 0.00 59 1009.0
20190426123127 17 245 14.5 22.5 0.00 0.00 0.00 59 1008.9
20190426121644 16 313 11.3 29.0 0.00 0.00 0.00 62 1008.6
20190426120146 16 279 9.7 25.7 0.00 0.00 0.00 61 1008.5
20190426114623 17 259 12.9 20.9 0.00 0.00 0.00 58 1008.3
20190426113123 17 289 12.9 27.4 0.00 0.00 0.00 60 1008.4
20190426111639 18 298 11.3 24.1 0.00 0.00 0.00 59 1008.3
20190426110127 18 300 8.0 24.1 0.00 0.00 0.00 60 1007.9
20190426104658 18 328 9.7 24.1 0.00 0.00 0.00 60 1007.7
20190426103148 18 306 12.9 22.5 0.00 0.00 0.00 60 1007.6
20190426101640 17 304 12.9 24.1 0.00 0.00 0.00 62 1007.5
20190426100103 17 297 11.3 22.5 0.00 0.00 0.00 59 1007.5
20190426094610 18 296 17.7 29.0 0.00 0.00 0.00 57 1007.4
20190426093211 17 304 6.4 17.7 0.00 0.00 0.00 63 1007.2
20190426091641 17 295 12.9 22.5 0.00 0.00 0.00 64 1007.1
20190426090141 17 270 4.8 12.9 0.00 0.00 0.00 65 1006.8
20190426084558 17 300 4.8 9.7 0.00 0.00 0.00 69 1006.4
20190426083107 16 298 3.2 8.0 0.00 0.00 0.00 73 1006.2
20190426081607 16 297 4.8 11.3 0.00 0.00 0.00 73 1006.2
20190426080125 16 165 0.0 3.2 0.00 0.00 0.00 74 1006.1
20190426074605 15 165 0.0 4.8 0.00 0.00 0.00 72 1006.1
20190426073125 15 165 0.0 6.4 0.00 0.00 0.00 70 1006.1
20190426071608 15 165 0.0 0.0 0.00 0.00 0.00 71 1006.1
20190426070043 15 165 0.0 1.6 0.00 0.00 0.00 71 1006.2
20190426064606 14 165 0.0 1.6 0.00 0.00 0.00 75 1006.4
20190426063053 13 165 0.0 0.0 0.00 0.00 0.00 73 1006.5
20190426061622 13 165 0.0 1.6 0.00 0.00 0.00 73 1006.7
20190426060036 12 165 0.0 0.0 0.00 0.00 0.00 72 1006.6
20190426054609 12 165 0.0 0.0 0.00 0.00 0.00 72 1006.7
20190426053029 12 165 0.0 4.8 0.00 0.00 0.00 73 1006.8
20190426051545 11 165 0.0 1.6 0.00 0.00 0.00 74 1006.7
20190426050032 11 165 0.0 0.0 0.00 0.00 0.00 72 1006.7
20190426044524 11 165 0.0 4.8 0.00 0.00 0.00 71 1006.7
20190426043019 11 165 0.0 0.0 0.00 0.00 0.00 70 1006.7
20190426041516 11 165 0.0 0.0 0.00 0.00 0.00 69 1006.7
20190426040051 12 165 3.2 8.0 0.00 0.00 0.00 66 1006.9
20190426034521 12 165 0.0 4.8 0.00 0.00 0.00 65 1006.9
20190426033014 13 165 1.6 4.8 0.00 0.00 0.00 62 1007.0
20190426031529 13 165 0.0 0.0 0.00 0.00 0.00 63 1007.0
20190426030004 13 165 0.0 3.2 0.00 0.00 0.00 61 1007.0
20190426024503 13 165 0.0 3.2 0.00 0.00 0.00 62 1007.2
20190426023243 13 165 0.0 4.8 0.00 0.00 0.00 60 1007.4
20190426021645 13 165 0.0 4.8 0.00 0.00 0.00 61 1007.6
20190426020134 13 165 0.0 3.2 0.00 0.00 0.00 59 1007.6
20190426014818 13 165 0.0 3.2 0.00 0.00 0.00 59 1007.7
20190426013157 14 165 0.0 4.8 0.00 0.00 0.00 57 1007.8
20190426011612 15 165 0.0 1.6 0.00 0.00 0.00 55 1007.9
20190426010121 15 165 0.0 0.0 0.00 0.00 0.00 53 1007.9
20190426004706 16 165 0.0 0.0 0.00 0.00 0.00 51 1008.0
20190426003054 16 165 0.0 1.6 0.00 0.00 0.00 50 1008.1
20190426001652 17 165 0.0 3.2 0.00 0.00 0.00 46 1008.2
20190426000043 18 165 0.0 3.2 0.00 0.00 0.00 44 1008.2
20190425234554 18 165 0.0 1.6 0.00 0.00 0.00 43 1008.2
20190425233037 19 165 1.6 11.3 0.00 0.00 0.00 42 1008.2
20190425231614 19 165 3.2 12.9 0.00 0.00 0.00 42 1008.3
20190425230056 19 169 8.0 17.7 0.00 0.00 0.00 42 1008.3
20190425224528 19 165 4.8 19.3 0.00 0.00 0.00 42 1008.4
20190425223049 19 175 0.0 6.4 0.00 0.00 0.00 42 1008.5
20190425221520 20 175 0.0 9.7 0.00 0.00 0.00 40 1008.5
20190425220017 20 165 1.6 12.9 0.00 0.00 0.00 40 1008.3
20190425214551 20 166 4.8 12.9 0.00 0.00 0.00 38 1008.3
20190425213023 20 169 8.0 17.7 0.00 0.00 0.00 38 1008.2
20190425211536 21 154 9.7 16.1 0.00 0.00 0.00 37 1008.3
20190425210013 21 170 8.0 17.7 0.00 0.00 0.00 37 1008.4
20190425204512 20 200 6.4 19.3 0.00 0.00 0.00 37 1008.4
20190425203006 20 165 6.4 24.1 0.00 0.00 0.00 38 1008.2
20190425201643 20 169 4.8 16.1 0.00 0.00 0.00 38 1008.2
20190425201500 20 178 8.0 16.1 0.00 0.00 0.00 37 1008.2
20190425200156 20 168 6.4 14.5 0.00 0.00 0.00 38 1008.3
20190425194717 20 169 8.0 14.5 0.00 0.00 0.00 38 1008.5
20190425193143 20 166 4.8 14.5 0.00 0.00 0.00 38 1008.3
20190425191625 20 164 6.4 12.9 0.00 0.00 0.00 37 1008.2
20190425190141 20 162 6.4 12.9 0.00 0.00 0.00 36 1008.2
20190425184626 20 161 6.4 12.9 0.00 0.00 0.00 36 1008.0
20190425183152 21 162 3.2 8.0 0.00 0.00 0.00 34 1008.0
20190425181652 21 162 4.8 11.3 0.00 0.00 0.00 34 1008.1
20190425180155 22 167 6.4 14.5 0.00 0.00 0.00 33 1008.0
20190425174629 23 224 0.0 1.6 0.00 0.00 0.00 32 1008.0
20190425173140 24 224 0.0 9.7 0.00 0.00 0.00 31 1008.0
20190425171637 25 225 3.2 8.0 0.00 0.00 0.00 27 1008.0
20190425170057 26 233 3.2 12.9 0.00 0.00 0.00 26 1007.9
20190425164546 27 253 3.2 9.7 0.00 0.00 0.00 25 1007.9
20190425163203 26 200 0.0 6.4 0.00 0.00 0.00 36 1008.0
20190425161635 26 89 0.0 1.6 0.00 0.00 0.00 38 1007.9
20190425160141 26 88 0.0 6.4 0.00 0.00 0.00 37 1007.8
20190425154704 26 74 3.2 9.7 0.00 0.00 0.00 35 1007.7
20190425153051 27 103 1.6 16.1 0.00 0.00 0.00 33 1007.8
20190425151542 28 80 6.4 14.5 0.00 0.00 0.00 32 1007.9
20190425150123 29 48 4.8 11.3 0.00 0.00 0.00 29 1008.0